Time;durP1;ratioP1;P1;durP2;ratioP2;P2;SDS_P1;SDS_P2;PMS_P1;PMS_P2;Temp;Humidity;BMP_temperature;BMP_pressure;BME280_temperature;BME280_humidity;BME280_pressure;Samples;Min_cycle;Max_cycle;Signal;HPM_P1;HPM_P2
2023/09/24 00:02:11;;;;;;;3.78;2.50;;;;;;;11.68;100.00;102219.34;10441166;28;20036;-68
2023/09/24 00:07:13;;;;;;;5.80;3.33;;;;;;;11.71;100.00;102224.44;10440960;28;20471;-67
2023/09/24 00:12:13;;;;;;;5.72;2.53;;;;;;;11.69;100.00;102225.59;10440266;28;20568;-68
2023/09/24 00:17:16;;;;;;;2.08;1.52;;;;;;;11.66;100.00;102226.78;10458728;28;20029;-69
2023/09/24 00:22:17;;;;;;;3.45;2.15;;;;;;;11.61;100.00;102226.44;10440198;28;20128;-68
2023/09/24 00:27:17;;;;;;;6.50;3.42;;;;;;;11.53;100.00;102232.75;10458091;28;20049;-69
2023/09/24 00:32:18;;;;;;;11.95;2.83;;;;;;;11.47;100.00;102243.44;10458083;28;20050;-67
2023/09/24 00:37:18;;;;;;;14.93;2.78;;;;;;;11.43;100.00;102244.81;10458679;28;20040;-68
2023/09/24 00:42:19;;;;;;;6.53;2.85;;;;;;;11.44;100.00;102249.19;10458526;28;20037;-69
2023/09/24 00:47:19;;;;;;;9.32;3.28;;;;;;;11.33;100.00;102234.13;10457112;28;20487;-68
2023/09/24 00:52:21;;;;;;;10.13;2.83;;;;;;;11.21;100.00;102236.31;10440066;28;20025;-68
2023/09/24 00:57:21;;;;;;;9.65;2.97;;;;;;;11.07;100.00;102255.94;10423221;28;20044;-68
2023/09/24 01:02:22;;;;;;;10.40;3.03;;;;;;;10.94;100.00;102251.88;10438813;28;20464;-69
2023/09/24 01:07:23;;;;;;;8.27;3.47;;;;;;;10.89;100.00;102248.81;10457095;28;20029;-68
2023/09/24 01:12:25;;;;;;;4.82;2.70;;;;;;;10.83;100.00;102246.78;10438000;28;20048;-67
2023/09/24 01:17:26;;;;;;;3.08;2.20;;;;;;;10.79;100.00;102247.28;10421246;28;20048;-69
2023/09/24 01:22:30;;;;;;;2.45;2.25;;;;;;;10.81;100.00;102248.78;10437816;28;20041;-68
2023/09/24 01:27:30;;;;;;;9.35;2.85;;;;;;;10.85;100.00;102247.47;10456867;28;20084;-69
2023/09/24 01:32:31;;;;;;;7.47;3.17;;;;;;;10.82;100.00;102247.81;10438222;28;20500;-69
2023/09/24 01:37:33;;;;;;;7.93;2.38;;;;;;;10.84;100.00;102251.16;10437913;28;20110;-68
2023/09/24 01:42:34;;;;;;;5.07;4.20;;;;;;;10.79;100.00;102244.56;10455028;28;20112;-68
2023/09/24 01:47:36;;;;;;;3.88;2.65;;;;;;;10.82;100.00;102249.66;10436432;28;20025;-68
2023/09/24 01:52:37;;;;;;;8.50;2.67;;;;;;;10.80;100.00;102254.38;10438276;28;20040;-69
2023/09/24 01:57:37;;;;;;;8.60;3.70;;;;;;;10.82;100.00;102269.47;10438260;28;20365;-68
2023/09/24 02:02:38;;;;;;;5.15;3.15;;;;;;;10.89;100.00;102266.94;10454306;28;20041;-68
2023/09/24 02:07:40;;;;;;;5.40;2.95;;;;;;;11.08;100.00;102268.50;10453613;28;20069;-68
2023/09/24 02:12:40;;;;;;;6.60;2.65;;;;;;;11.26;100.00;102265.63;10454887;28;20135;-69
2023/09/24 02:17:41;;;;;;;6.07;2.70;;;;;;;11.32;100.00;102260.38;10456453;28;20076;-69
2023/09/24 02:22:42;;;;;;;4.22;2.95;;;;;;;11.29;100.00;102262.56;10423985;28;20108;-69
2023/09/24 02:27:42;;;;;;;3.95;3.15;;;;;;;11.21;100.00;102266.16;10455261;28;20041;-68
2023/09/24 02:32:43;;;;;;;7.60;3.58;;;;;;;11.12;100.00;102262.56;10455062;28;20477;-68
2023/09/24 02:37:45;;;;;;;7.05;3.20;;;;;;;11.12;100.00;102259.88;10437149;28;20041;-69
2023/09/24 02:42:48;;;;;;;8.57;3.17;;;;;;;11.11;100.00;102246.50;10436141;28;20102;-68
2023/09/24 02:47:49;;;;;;;2.28;2.10;;;;;;;11.10;100.00;102248.34;10453801;28;20036;-68
2023/09/24 02:52:57;;;;;;;7.65;2.83;;;;;;;11.02;100.00;102258.34;10453964;28;20488;-69
2023/09/24 02:57:57;;;;;;;4.22;2.58;;;;;;;10.93;100.00;102261.00;10452504;28;20073;-69
2023/09/24 03:02:58;;;;;;;5.75;3.08;;;;;;;10.87;100.00;102261.69;10453653;28;20025;-68
2023/09/24 03:08:05;;;;;;;10.00;3.85;;;;;;;10.80;100.00;102260.66;10454345;28;20385;-68
2023/09/24 03:13:05;;;;;;;13.70;3.47;;;;;;;10.79;100.00;102260.84;10458232;28;20061;-69
2023/09/24 03:18:06;;;;;;;5.28;2.67;;;;;;;10.76;100.00;102272.00;10443025;28;20048;-69
2023/09/24 03:23:09;;;;;;;8.07;3.60;;;;;;;10.74;100.00;102283.00;10460299;28;20123;-68
2023/09/24 03:28:10;;;;;;;7.97;5.47;;;;;;;10.74;100.00;102293.81;10460965;28;20043;-69
2023/09/24 03:33:10;;;;;;;9.32;4.13;;;;;;;10.67;100.00;102296.34;10461241;28;20048;-68
2023/09/24 03:38:11;;;;;;;3.70;3.33;;;;;;;10.62;100.00;102293.25;10460040;28;20025;-68
2023/09/24 03:43:11;;;;;;;12.38;3.90;;;;;;;10.83;100.00;102300.97;10459798;28;20032;-68
2023/09/24 03:48:13;;;;;;;5.72;2.55;;;;;;;11.06;100.00;102303.06;10458988;28;20044;-69
2023/09/24 03:53:13;;;;;;;8.73;3.63;;;;;;;11.11;100.00;102306.13;10441466;28;20025;-68
2023/09/24 03:58:14;;;;;;;6.28;4.00;;;;;;;11.12;100.00;102308.66;10441262;28;20469;-68
2023/09/24 04:03:16;;;;;;;11.18;5.28;;;;;;;11.13;100.00;102307.63;10441069;28;20112;-68
2023/09/24 04:08:17;;;;;;;11.18;5.70;;;;;;;11.21;100.00;102316.81;10441028;28;20040;-67
2023/09/24 04:13:17;;;;;;;8.00;4.88;;;;;;;11.15;100.00;102321.03;10440097;28;20423;-67
2023/09/24 04:18:18;;;;;;;19.02;5.65;;;;;;;11.06;100.00;102313.91;10458441;28;20064;-68
2023/09/24 04:23:18;;;;;;;5.20;4.43;;;;;;;11.00;100.00;102319.97;10457461;28;20416;-68
2023/09/24 04:28:19;;;;;;;11.50;4.88;;;;;;;10.88;100.00;102312.19;10440866;28;20074;-68
2023/09/24 04:33:20;;;;;;;7.10;4.90;;;;;;;10.81;100.00;102312.97;10458737;28;20033;-68
2023/09/24 04:38:21;;;;;;;4.93;4.40;;;;;;;10.81;100.00;102323.81;10439433;28;20514;-68
2023/09/24 04:43:21;;;;;;;7.22;4.47;;;;;;;10.87;100.00;102325.88;10439100;28;20485;-69
2023/09/24 04:48:22;;;;;;;7.05;3.95;;;;;;;10.79;100.00;102317.75;10441081;28;20029;-68
2023/09/24 04:53:22;;;;;;;7.25;5.47;;;;;;;10.83;100.00;102319.94;10439305;28;20391;-68
2023/09/24 04:58:22;;;;;;;9.07;5.10;;;;;;;10.83;100.00;102317.22;10457310;28;20037;-69
2023/09/24 05:03:23;;;;;;;4.40;3.95;;;;;;;10.79;100.00;102328.56;10455907;28;20037;-69
2023/09/24 05:08:23;;;;;;;5.50;4.05;;;;;;;10.68;100.00;102324.28;10438199;28;20044;-67
2023/09/24 05:13:23;;;;;;;6.60;3.53;;;;;;;10.55;100.00;102327.44;10456662;28;20632;-68
2023/09/24 05:18:24;;;;;;;17.92;4.55;;;;;;;10.48;100.00;102327.25;10437585;28;20037;-68
2023/09/24 05:23:25;;;;;;;5.18;4.25;;;;;;;10.48;100.00;102332.66;10455230;28;20115;-68
2023/09/24 05:28:25;;;;;;;8.15;4.43;;;;;;;10.51;100.00;102342.34;10456263;28;20368;-68
2023/09/24 05:33:25;;;;;;;7.63;4.25;;;;;;;10.47;100.00;102349.94;10456555;28;20548;-68
2023/09/24 05:38:29;;;;;;;6.80;4.25;;;;;;;10.44;100.00;102347.56;10456996;28;20036;-68
2023/09/24 05:43:29;;;;;;;6.75;4.65;;;;;;;10.48;100.00;102351.63;10437769;28;20036;-68
2023/09/24 05:48:30;;;;;;;5.68;5.10;;;;;;;10.57;100.00;102357.94;10454929;28;20108;-68
2023/09/24 05:53:30;;;;;;;5.25;4.78;;;;;;;10.70;100.00;102352.91;10456286;28;20048;-68
2023/09/24 05:58:31;;;;;;;12.73;5.57;;;;;;;10.87;100.00;102356.53;10456932;28;20108;-68
2023/09/24 06:03:31;;;;;;;9.75;5.93;;;;;;;10.96;100.00;102367.41;10458124;28;20069;-67
2023/09/24 06:08:32;;;;;;;5.90;4.95;;;;;;;11.03;100.00;102360.31;10455538;28;20066;-67
2023/09/24 06:13:32;;;;;;;13.43;6.30;;;;;;;11.06;100.00;102357.28;10455128;28;20041;-69
2023/09/24 06:18:33;;;;;;;9.38;7.10;;;;;;;11.07;100.00;102367.97;10436674;28;20465;-69
2023/09/24 06:23:34;;;;;;;13.68;7.15;;;;;;;11.16;100.00;102371.53;10435792;28;20084;-67
2023/09/24 06:28:34;;;;;;;20.58;7.45;;;;;;;11.71;100.00;102378.22;10454321;28;20123;-67
2023/09/24 06:33:35;;;;;;;15.90;6.47;;;;;;;12.43;100.00;102367.50;10453460;28;20124;-67
2023/09/24 06:38:36;;;;;;;10.02;5.75;;;;;;;13.05;100.00;102375.78;10437072;28;20090;-66
2023/09/24 06:43:37;;;;;;;8.68;6.78;;;;;;;13.80;100.00;102380.56;10436868;28;20029;-67
2023/09/24 06:48:37;;;;;;;4.72;3.80;;;;;;;13.89;100.00;102381.34;10441372;28;20377;-67
2023/09/24 06:53:38;;;;;;;8.55;5.90;;;;;;;14.58;100.00;102387.53;10461885;28;20056;-67
2023/09/24 06:58:39;;;;;;;6.75;4.07;;;;;;;15.01;100.00;102387.66;10461890;28;20049;-70
2023/09/24 07:03:39;;;;;;;7.25;3.42;;;;;;;15.54;100.00;102390.19;10460985;28;20516;-68
2023/09/24 07:08:40;;;;;;;3.25;2.60;;;;;;;16.13;100.00;102402.72;10461423;28;20053;-67
2023/09/24 07:13:41;;;;;;;3.13;2.92;;;;;;;16.68;100.00;102404.56;10462943;28;20033;-70
2023/09/24 07:18:42;;;;;;;4.32;3.42;;;;;;;17.12;100.00;102408.00;10465659;28;20124;-69
2023/09/24 07:23:42;;;;;;;10.68;3.28;;;;;;;17.37;100.00;102413.78;10466508;28;20346;-68
2023/09/24 07:28:43;;;;;;;6.13;2.90;;;;;;;17.68;100.00;102418.69;10463880;28;20072;-68
2023/09/24 07:33:44;;;;;;;8.07;4.40;;;;;;;17.80;100.00;102411.56;10442530;28;20481;-69
2023/09/24 07:38:45;;;;;;;6.22;3.22;;;;;;;17.80;100.00;102395.13;10459637;28;20048;-68
2023/09/24 07:43:46;;;;;;;3.53;2.05;;;;;;;18.30;100.00;102409.25;10442390;28;20358;-68
2023/09/24 07:48:47;;;;;;;2.65;2.45;;;;;;;18.52;100.00;102414.53;10458183;28;20468;-67
2023/09/24 07:53:49;;;;;;;4.10;2.85;;;;;;;18.69;100.00;102409.41;10459305;28;20036;-68
2023/09/24 07:58:50;;;;;;;1.92;1.83;;;;;;;19.29;100.00;102421.88;10456933;28;20037;-67
2023/09/24 08:03:51;;;;;;;3.10;2.63;;;;;;;19.45;100.00;102419.72;10441789;28;20086;-68
2023/09/24 08:08:53;;;;;;;3.83;2.63;;;;;;;20.00;100.00;102406.25;10440267;28;20045;-69
2023/09/24 08:13:53;;;;;;;4.90;2.50;;;;;;;20.53;100.00;102411.31;10440890;28;20037;-69
2023/09/24 08:18:53;;;;;;;6.28;3.13;;;;;;;20.59;100.00;102407.66;10424811;28;20038;-69
2023/09/24 08:23:54;;;;;;;10.30;2.78;;;;;;;20.87;100.00;102411.81;10407601;28;20056;-70
2023/09/24 08:28:54;;;;;;;3.67;2.78;;;;;;;21.16;100.00;102414.84;10458483;28;20061;-69
2023/09/24 08:33:55;;;;;;;9.63;3.22;;;;;;;21.36;100.00;102416.28;10457688;28;20469;-69
2023/09/24 08:38:56;;;;;;;1.83;1.73;;;;;;;21.53;100.00;102410.13;10457927;28;20052;-69
2023/09/24 08:43:56;;;;;;;2.50;2.30;;;;;;;21.40;100.00;102415.81;10439255;28;20116;-69
2023/09/24 08:48:58;;;;;;;2.67;2.15;;;;;;;21.32;100.00;102414.19;10438608;28;20501;-67
2023/09/24 08:53:59;;;;;;;7.82;3.10;;;;;;;21.87;100.00;102413.22;10422853;28;20465;-69
2023/09/24 08:58:59;;;;;;;3.83;2.05;;;;;;;22.18;100.00;102406.59;10440162;28;20039;-68
2023/09/24 09:04:00;;;;;;;2.30;2.10;;;;;;;21.80;100.00;102410.56;10438855;28;20369;-69
2023/09/24 09:09:00;;;;;;;4.57;2.78;;;;;;;21.38;100.00;102407.78;10455050;28;20147;-68
2023/09/24 09:14:02;;;;;;;3.45;1.85;;;;;;;21.08;100.00;102402.22;10437917;28;20501;-68
2023/09/24 09:19:03;;;;;;;4.20;2.40;;;;;;;21.29;100.00;102401.72;10438251;28;20385;-69
2023/09/24 09:24:03;;;;;;;3.08;2.83;;;;;;;21.51;100.00;102401.25;10454107;28;20065;-69
2023/09/24 09:29:07;;;;;;;2.55;2.10;;;;;;;22.05;100.00;102399.34;10421852;28;20045;-69
2023/09/24 09:34:07;;;;;;;2.17;1.92;;;;;;;22.11;100.00;102390.09;10437365;28;20041;-69
2023/09/24 09:39:08;;;;;;;4.75;2.63;;;;;;;22.38;100.00;102395.19;10455086;28;20037;-68
2023/09/24 09:44:08;;;;;;;3.50;2.10;;;;;;;22.96;100.00;102388.78;10437876;28;20041;-68
2023/09/24 09:49:09;;;;;;;2.63;1.83;;;;;;;23.16;100.00;102391.09;10454097;28;20033;-69
2023/09/24 09:54:10;;;;;;;1.67;1.58;;;;;;;23.30;100.00;102381.44;10437115;28;20075;-70
2023/09/24 09:59:11;;;;;;;2.25;2.03;;;;;;;23.46;100.00;102388.09;10420929;28;20025;-67
2023/09/24 10:04:11;;;;;;;9.55;2.35;;;;;;;22.98;100.00;102368.09;10455234;28;20394;-68
2023/09/24 10:09:27;;;;;;;2.15;1.30;;;;;;;22.62;100.00;102369.25;10435971;28;20164;-68
2023/09/24 10:14:42;;;;;;;10.77;2.97;;;;;;;22.68;100.00;102361.91;10454038;28;20461;-69
2023/09/24 10:19:53;;;;;;;5.35;1.75;;;;;;;22.39;100.00;102363.75;10420641;28;20392;-69
2023/09/24 10:24:54;;;;;;;5.70;1.95;;;;;;;22.51;100.00;102364.56;10436261;28;20110;-69
2023/09/24 10:29:55;;;;;;;2.83;2.20;;;;;;;22.48;100.00;102365.88;10453153;28;20037;-68
2023/09/24 10:34:57;;;;;;;4.13;2.63;;;;;;;23.10;100.00;102358.91;10452409;28;20112;-71
2023/09/24 10:39:57;;;;;;;3.42;2.15;;;;;;;23.90;100.00;102364.31;10454105;28;20056;-69
2023/09/24 10:45:07;;;;;;;2.40;2.03;;;;;;;23.54;100.00;102356.44;10454577;28;20044;-67
2023/09/24 10:50:11;;;;;;;4.78;1.80;;;;;;;23.74;100.00;102359.59;10452730;28;20293;-68
2023/09/24 10:55:11;;;;;;;5.70;2.17;;;;;;;23.58;91.23;102354.84;10435953;28;20082;-69
2023/09/24 11:00:16;;;;;;;3.30;2.17;;;;;;;23.80;100.00;102346.69;10452587;28;20090;-68
2023/09/24 11:05:17;;;;;;;3.35;2.10;;;;;;;24.31;91.94;102342.78;10435261;28;20116;-68
2023/09/24 11:10:22;;;;;;;1.95;1.85;;;;;;;23.58;92.99;102339.13;10435306;28;20120;-68
2023/09/24 11:15:24;;;;;;;4.33;2.60;;;;;;;24.10;70.08;102340.81;10454161;28;20110;-69
2023/09/24 11:20:25;;;;;;;8.88;2.88;;;;;;;23.56;74.33;102351.50;10453187;28;20074;-69
2023/09/24 11:25:26;;;;;;;4.15;2.15;;;;;;;23.29;68.56;102345.75;10434549;28;20084;-69
2023/09/24 11:30:39;;;;;;;2.45;2.25;;;;;;;22.95;67.70;102329.91;10418240;28;20061;-69
2023/09/24 11:35:40;;;;;;;1.77;1.67;;;;;;;23.13;73.53;102330.78;10475270;28;20033;-68
2023/09/24 11:40:41;;;;;;;2.67;2.47;;;;;;;23.47;75.14;102336.41;10459926;28;20037;-69
2023/09/24 11:45:48;;;;;;;4.40;2.35;;;;;;;23.72;69.97;102339.66;10426477;28;20029;-68
2023/09/24 11:50:55;;;;;;;3.00;2.03;;;;;;;23.44;72.46;102326.69;10425458;28;20483;-69
2023/09/24 11:55:57;;;;;;;2.92;1.90;;;;;;;23.43;78.35;102320.31;10441729;28;20060;-68
2023/09/24 12:00:57;;;;;;;3.22;2.17;;;;;;;23.75;63.82;102325.31;10441157;28;20036;-69
2023/09/24 12:05:58;;;;;;;2.50;2.08;;;;;;;23.77;75.04;102322.28;10441472;28;20353;-68
2023/09/24 12:10:58;;;;;;;5.65;2.33;;;;;;;24.05;81.13;102324.13;10441533;28;20040;-68
2023/09/24 12:15:59;;;;;;;2.13;2.00;;;;;;;24.47;73.88;102318.09;10455965;28;20474;-67
2023/09/24 12:20:59;;;;;;;4.93;2.78;;;;;;;24.31;61.76;102308.72;10457596;28;20060;-68
2023/09/24 12:25:59;;;;;;;2.65;2.03;;;;;;;23.69;63.60;102309.72;10424786;28;20060;-70
2023/09/24 12:31:00;;;;;;;2.72;2.53;;;;;;;23.68;65.12;102310.78;10457655;28;20460;-71
2023/09/24 12:36:00;;;;;;;5.32;2.10;;;;;;;24.04;84.09;102305.84;10457729;28;20065;-71
2023/09/24 12:41:01;;;;;;;2.35;2.15;;;;;;;24.24;65.96;102292.28;10456818;28;20041;-70
2023/09/24 12:46:07;;;;;;;2.65;2.10;;;;;;;23.86;74.54;102288.41;10455657;28;20185;-68
2023/09/24 12:51:07;;;;;;;2.45;1.98;;;;;;;24.07;65.85;102288.72;10438539;28;20477;-71
2023/09/24 12:56:08;;;;;;;1.92;1.83;;;;;;;23.96;75.22;102281.34;10455489;28;20128;-68
2023/09/24 13:01:08;;;;;;;1.85;1.73;;;;;;;23.30;55.38;102281.94;10456215;28;20055;-65
2023/09/24 13:06:19;;;;;;;1.70;1.60;;;;;;;23.26;68.47;102275.25;10438641;28;20143;-67
2023/09/24 13:11:19;;;;;;;7.47;2.30;;;;;;;23.82;75.36;102273.41;10438944;28;20028;-67
2023/09/24 13:16:20;;;;;;;2.22;1.92;;;;;;;24.08;61.14;102271.03;10438949;28;20044;-66
2023/09/24 13:21:20;;;;;;;8.13;2.42;;;;;;;23.72;63.34;102262.19;10439349;28;20047;-66
2023/09/24 13:26:21;;;;;;;4.88;2.67;;;;;;;23.67;69.56;102262.06;10456599;28;20064;-67
2023/09/24 13:31:21;;;;;;;2.75;1.70;;;;;;;23.82;72.11;102267.88;10422621;28;20099;-67
2023/09/24 13:36:22;;;;;;;2.13;2.03;;;;;;;23.71;61.25;102243.94;10455437;28;20037;-67
2023/09/24 13:41:22;;;;;;;1.30;1.23;;;;;;;23.59;70.28;102244.00;10438288;28;20186;-68
2023/09/24 13:46:24;;;;;;;1.80;1.70;;;;;;;23.69;79.96;102236.97;10436247;28;20036;-67
2023/09/24 13:51:24;;;;;;;2.50;2.30;;;;;;;23.56;78.95;102235.38;10419548;28;20115;-68
2023/09/24 13:56:25;;;;;;;5.68;2.38;;;;;;;23.45;79.51;102245.41;10435661;28;20404;-68
2023/09/24 14:01:25;;;;;;;1.90;1.80;;;;;;;23.26;80.81;102231.03;10454683;28;20120;-67
2023/09/24 14:06:26;;;;;;;2.35;1.80;;;;;;;23.13;77.25;102236.84;10436067;28;20038;-68
2023/09/24 14:16:47;;;;;;;5.65;1.63;;;;;;;23.01;77.83;102225.03;10453672;28;20032;-67
2023/09/24 14:21:47;;;;;;;2.38;2.17;;;;;;;22.91;68.01;102211.81;10436205;28;20471;-68
2023/09/24 14:26:47;;;;;;;3.92;2.08;;;;;;;22.85;88.55;102201.78;10453716;28;20080;-68
2023/09/24 14:31:48;;;;;;;2.08;1.90;;;;;;;22.68;85.93;102196.22;10453830;28;20041;-68
2023/09/24 14:36:48;;;;;;;1.80;1.70;;;;;;;22.71;87.14;102195.72;10453336;28;20029;-68
2023/09/24 14:41:49;;;;;;;5.15;1.95;;;;;;;22.65;87.85;102191.19;10453924;28;20308;-65
2023/09/24 14:46:49;;;;;;;2.22;2.03;;;;;;;21.99;79.88;102193.41;10452736;28;20036;-66
2023/09/24 14:51:50;;;;;;;1.98;1.88;;;;;;;21.32;86.42;102183.59;10453140;28;20037;-67
2023/09/24 14:56:50;;;;;;;2.22;1.70;;;;;;;20.64;80.00;102184.88;10434774;28;20076;-66
2023/09/24 15:01:50;;;;;;;4.95;1.90;;;;;;;19.98;83.78;102180.19;10469830;28;20037;-67
2023/09/24 15:06:51;;;;;;;1.90;1.52;;;;;;;19.58;80.87;102188.81;10454886;28;20082;-66
2023/09/24 15:11:51;;;;;;;1.63;1.52;;;;;;;19.47;92.21;102187.66;10444421;28;20037;-65
2023/09/24 15:16:53;;;;;;;1.77;1.52;;;;;;;19.41;96.15;102187.72;10460530;28;20155;-65
2023/09/24 15:21:53;;;;;;;1.38;1.27;;;;;;;19.15;87.31;102181.38;10442701;28;20376;-66
2023/09/24 15:26:54;;;;;;;1.63;1.42;;;;;;;19.00;87.96;102175.38;10443044;28;20049;-66
2023/09/24 15:31:54;;;;;;;2.80;2.10;;;;;;;18.91;89.79;102177.53;10441321;28;20342;-66
2023/09/24 15:36:55;;;;;;;4.88;2.65;;;;;;;18.86;92.36;102179.25;10459050;28;20045;-66
2023/09/24 15:41:55;;;;;;;2.50;1.92;;;;;;;18.74;86.84;102173.66;10441801;28;20040;-66
2023/09/24 15:46:56;;;;;;;2.40;1.67;;;;;;;18.77;89.41;102165.81;10459774;28;20460;-66
2023/09/24 15:51:56;;;;;;;3.88;1.70;;;;;;;18.79;90.27;102160.97;10425883;28;20135;-66
2023/09/24 15:56:56;;;;;;;1.20;1.20;;;;;;;18.72;89.39;102159.28;10458226;28;20143;-66
2023/09/24 16:01:57;;;;;;;2.95;1.50;;;;;;;18.74;95.60;102154.44;10458231;28;20083;-66
2023/09/24 16:06:58;;;;;;;8.70;1.95;;;;;;;18.67;97.53;102153.63;10441334;28;20037;-66
2023/09/24 16:11:58;;;;;;;4.15;1.77;;;;;;;18.63;97.10;102157.84;10440035;28;20104;-65
2023/09/24 16:16:59;;;;;;;1.60;1.50;;;;;;;18.57;97.67;102148.63;10458706;28;20108;-68
2023/09/24 16:21:59;;;;;;;8.57;1.55;;;;;;;18.45;94.60;102144.88;10456736;28;20508;-66
2023/09/24 16:26:59;;;;;;;1.40;1.30;;;;;;;18.44;98.82;102163.25;10456552;28;20417;-67
2023/09/24 16:32:00;;;;;;;2.88;1.70;;;;;;;18.37;100.00;102156.94;10458903;28;20056;-66
2023/09/24 16:37:00;;;;;;;3.05;1.33;;;;;;;18.26;100.00;102147.50;10440576;28;20082;-66
2023/09/24 16:42:01;;;;;;;1.50;1.40;;;;;;;18.22;100.00;102150.88;10460804;28;20464;-65
2023/09/24 16:47:02;;;;;;;3.50;2.33;;;;;;;18.08;100.00;102139.16;10457562;28;20483;-67
2023/09/24 16:52:02;;;;;;;9.30;1.80;;;;;;;18.04;100.00;102144.22;10455456;28;20453;-66
2023/09/24 16:57:03;;;;;;;1.50;1.40;;;;;;;17.97;100.00;102150.81;10455565;28;20376;-66
2023/09/24 17:02:04;;;;;;;3.72;1.67;;;;;;;17.85;100.00;102145.13;10440300;28;20064;-66
2023/09/24 17:07:05;;;;;;;1.45;1.38;;;;;;;17.78;100.00;102149.81;10438481;28;20037;-66
2023/09/24 17:12:05;;;;;;;1.67;1.58;;;;;;;17.74;100.00;102146.63;10456240;28;20477;-65
2023/09/24 17:17:07;;;;;;;2.78;1.98;;;;;;;17.59;100.00;102163.28;10456754;28;20219;-67
2023/09/24 17:22:07;;;;;;;2.30;2.10;;;;;;;17.46;100.00;102167.97;10455618;28;20457;-67
2023/09/24 17:27:08;;;;;;;2.08;1.98;;;;;;;17.32;100.00;102162.47;10456197;28;20079;-67
2023/09/24 17:32:08;;;;;;;1.77;1.63;;;;;;;17.19;100.00;102157.84;10455706;28;20114;-67
2023/09/24 17:37:08;;;;;;;2.00;1.90;;;;;;;17.16;100.00;102150.03;10454769;28;20029;-67
2023/09/24 17:42:09;;;;;;;1.77;1.67;;;;;;;17.02;100.00;102148.38;10454781;28;20075;-66
2023/09/24 17:47:09;;;;;;;2.72;1.67;;;;;;;16.96;100.00;102139.09;10455606;28;20037;-68
2023/09/24 17:52:10;;;;;;;2.83;2.05;;;;;;;16.91;100.00;102141.66;10454185;28;20214;-67
2023/09/24 17:57:10;;;;;;;1.65;1.55;;;;;;;16.89;100.00;102142.91;10454858;28;20029;-66
2023/09/24 18:02:10;;;;;;;1.73;1.63;;;;;;;16.89;100.00;102141.00;10453322;28;20088;-67
2023/09/24 18:07:11;;;;;;;2.15;1.90;;;;;;;16.87;100.00;102143.09;10436435;28;20041;-67
2023/09/24 18:12:11;;;;;;;2.25;2.00;;;;;;;16.84;100.00;102127.09;10454318;28;20033;-65
2023/09/24 18:17:12;;;;;;;1.83;1.65;;;;;;;16.73;100.00;102141.38;10453919;28;20384;-66
2023/09/24 18:22:12;;;;;;;2.10;1.92;;;;;;;16.69;100.00;102132.75;10453961;28;20045;-66
2023/09/24 18:27:12;;;;;;;5.40;1.90;;;;;;;16.59;100.00;102135.06;10454220;28;20477;-65
2023/09/24 18:32:13;;;;;;;2.25;1.67;;;;;;;16.54;100.00;102128.50;10454980;28;20048;-66
2023/09/24 18:37:14;;;;;;;3.95;1.63;;;;;;;16.56;100.00;102142.81;10454489;28;20029;-66
2023/09/24 18:42:14;;;;;;;3.80;2.08;;;;;;;16.49;100.00;102138.16;10437939;28;20058;-65
2023/09/24 18:47:14;;;;;;;1.75;1.58;;;;;;;16.47;100.00;102131.22;10427781;28;20129;-66
2023/09/24 18:52:15;;;;;;;2.22;1.45;;;;;;;16.32;100.00;102131.38;10443389;28;20112;-66
2023/09/24 18:57:15;;;;;;;2.22;1.98;;;;;;;16.26;100.00;102141.25;10463183;28;20047;-66
2023/09/24 19:02:16;;;;;;;2.80;2.58;;;;;;;16.16;100.00;102134.50;10461442;28;20052;-66
2023/09/24 19:07:17;;;;;;;8.77;3.63;;;;;;;16.03;100.00;102141.59;10460811;28;20056;-67
2023/09/24 19:12:17;;;;;;;3.90;2.47;;;;;;;15.96;100.00;102132.53;10461939;28;20081;-65
2023/09/24 19:17:18;;;;;;;3.63;2.55;;;;;;;15.90;100.00;102135.22;10442677;28;20191;-65
2023/09/24 19:22:20;;;;;;;2.28;2.00;;;;;;;15.76;100.00;102134.28;10461154;28;20052;-66
2023/09/24 19:27:20;;;;;;;2.20;1.88;;;;;;;15.75;100.00;102136.19;10417690;28;20531;-65
2023/09/24 19:32:21;;;;;;;1.80;1.70;;;;;;;15.67;100.00;102130.91;10419678;28;20049;-65
2023/09/24 19:37:22;;;;;;;1.10;1.10;;;;;;;15.56;100.00;102128.69;10450641;28;20052;-67
2023/09/24 19:42:22;;;;;;;3.72;2.17;;;;;;;15.42;100.00;102126.94;10418040;28;20125;-66
2023/09/24 19:47:23;;;;;;;4.05;1.80;;;;;;;15.35;100.00;102125.00;10449597;28;20061;-66
2023/09/24 19:52:23;;;;;;;4.75;3.17;;;;;;;15.35;100.00;102107.78;10433895;28;20061;-66
2023/09/24 19:57:23;;;;;;;2.33;2.15;;;;;;;15.28;100.00;102110.47;10400306;28;20107;-66
2023/09/24 20:02:24;;;;;;;3.88;2.20;;;;;;;15.18;100.00;102103.66;10418185;28;20072;-67
2023/09/24 20:07:26;;;;;;;2.70;2.50;;;;;;;15.13;100.00;102096.09;10449727;28;20461;-67
2023/09/24 20:12:28;;;;;;;2.33;2.13;;;;;;;15.08;100.00;102093.09;10417886;28;20030;-67
2023/09/24 20:17:29;;;;;;;3.13;2.42;;;;;;;15.06;100.00;102093.31;10434251;28;20048;-66
2023/09/24 20:22:29;;;;;;;4.43;1.95;;;;;;;15.05;100.00;102097.06;10416621;28;20437;-65
2023/09/24 20:27:30;;;;;;;2.67;2.47;;;;;;;15.02;100.00;102100.19;10412465;28;20103;-66
2023/09/24 20:32:30;;;;;;;2.50;1.70;;;;;;;15.00;100.00;102102.28;10416873;28;20073;-66
2023/09/24 20:37:31;;;;;;;2.75;2.50;;;;;;;14.99;100.00;102094.28;10416484;28;20033;-65
2023/09/24 20:42:31;;;;;;;3.15;2.45;;;;;;;15.00;100.00;102094.09;10415607;28;20061;-66
2023/09/24 20:47:33;;;;;;;2.70;2.33;;;;;;;15.06;100.00;102092.44;10399704;28;20040;-65
2023/09/24 20:52:33;;;;;;;3.97;2.63;;;;;;;15.15;100.00;102099.44;10416987;28;20386;-66
2023/09/24 20:57:33;;;;;;;8.95;2.90;;;;;;;15.04;100.00;102084.47;10416910;28;20033;-66
2023/09/24 21:02:35;;;;;;;3.20;2.60;;;;;;;15.15;100.00;102082.22;10415952;28;20038;-65
2023/09/24 21:07:36;;;;;;;4.15;2.00;;;;;;;15.17;100.00;102077.44;10446537;28;20033;-66
2023/09/24 21:12:36;;;;;;;1.65;1.55;;;;;;;15.17;100.00;102078.25;10415636;28;20461;-65
2023/09/24 21:17:36;;;;;;;6.68;2.08;;;;;;;15.14;100.00;102069.63;10415210;28;20044;-65
2023/09/24 21:22:37;;;;;;;1.70;1.63;;;;;;;15.14;100.00;102083.28;10415717;28;20048;-66
2023/09/24 21:27:37;;;;;;;3.22;2.13;;;;;;;15.14;100.00;102072.38;10445887;28;20049;-66
2023/09/24 21:32:38;;;;;;;2.35;1.63;;;;;;;15.08;100.00;102080.28;10414586;28;20151;-67
2023/09/24 21:37:38;;;;;;;5.18;2.40;;;;;;;15.03;100.00;102066.41;10414555;28;20052;-65
2023/09/24 21:42:39;;;;;;;2.67;2.47;;;;;;;14.88;100.00;102050.13;10412152;28;20508;-65
2023/09/24 21:47:42;;;;;;;6.05;2.17;;;;;;;14.84;100.00;102042.56;10413877;28;20091;-66
2023/09/24 21:52:42;;;;;;;5.22;1.58;;;;;;;14.81;100.00;102038.34;10413287;28;20033;-65
2023/09/24 21:57:42;;;;;;;2.20;2.00;;;;;;;14.73;100.00;102041.19;10411948;28;20037;-66
2023/09/24 22:02:43;;;;;;;3.20;2.38;;;;;;;14.65;100.00;102042.19;10413798;28;20057;-66
2023/09/24 22:07:44;;;;;;;2.17;2.05;;;;;;;14.60;100.00;102039.22;10413237;28;20044;-66
2023/09/24 22:12:44;;;;;;;2.13;1.98;;;;;;;14.56;100.00;102024.28;10428627;28;20477;-66
2023/09/24 22:17:45;;;;;;;3.92;2.90;;;;;;;14.47;100.00;102008.25;10412747;28;20442;-67
2023/09/24 22:22:45;;;;;;;3.90;2.35;;;;;;;14.48;100.00;102015.38;10413039;28;20041;-66
2023/09/24 22:27:45;;;;;;;2.60;2.03;;;;;;;14.48;100.00;102010.75;10442610;28;20135;-66
2023/09/24 22:32:46;;;;;;;1.75;1.65;;;;;;;14.53;100.00;102002.03;10435840;28;20044;-66
2023/09/24 22:37:47;;;;;;;7.30;2.70;;;;;;;14.50;100.00;102003.25;10453139;28;20033;-65
2023/09/24 22:42:47;;;;;;;2.80;1.95;;;;;;;14.52;100.00;101994.91;10452590;28;20068;-66
2023/09/24 22:47:48;;;;;;;3.55;2.53;;;;;;;14.51;100.00;102010.41;10453389;28;20075;-64
2023/09/24 22:52:49;;;;;;;4.50;2.20;;;;;;;14.51;100.00;102004.94;10452549;28;20040;-66